createdAt,value
2022-09-26T00:01:33.382Z,100.00
2022-09-26T00:04:06.592Z,100.00
2022-09-26T00:06:34.178Z,100.00
2022-09-26T00:09:01.683Z,100.00
2022-09-26T00:11:31.916Z,100.00
2022-09-26T00:14:06.173Z,100.00
2022-09-26T00:16:34.041Z,100.00
2022-09-26T00:19:02.016Z,100.00
2022-09-26T00:21:30.589Z,100.00
2022-09-26T00:24:00.610Z,100.00
2022-09-26T00:26:30.681Z,100.00
2022-09-26T00:28:59.073Z,100.00
2022-09-26T00:31:32.321Z,100.00
2022-09-26T00:33:59.960Z,100.00
2022-09-26T00:36:37.656Z,100.00
2022-09-26T00:39:11.386Z,100.00
2022-09-26T00:44:55.350Z,100.00
2022-09-26T00:47:40.876Z,100.00
2022-09-26T00:50:14.725Z,100.00
2022-09-26T00:52:49.655Z,100.00
2022-09-26T00:55:21.834Z,100.00
2022-09-26T00:58:00.855Z,100.00
2022-09-26T01:00:28.594Z,100.00
2022-09-26T01:02:57.027Z,100.00
2022-09-26T01:05:24.831Z,100.00
2022-09-26T01:07:54.215Z,100.00
2022-09-26T01:10:22.208Z,100.00
2022-09-26T01:12:49.698Z,100.00
2022-09-26T01:15:18.356Z,100.00
2022-09-26T01:17:49.743Z,100.00
2022-09-26T01:20:29.503Z,100.00
2022-09-26T01:23:06.441Z,100.00
2022-09-26T01:25:52.129Z,100.00
2022-09-26T01:28:58.893Z,100.00
2022-09-26T01:32:10.848Z,100.00
2022-09-26T01:34:59.382Z,100.00
2022-09-26T01:38:08.794Z,100.00
2022-09-26T01:41:04.832Z,100.00
2022-09-26T01:43:54.375Z,100.00
2022-09-26T01:46:34.537Z,100.00
2022-09-26T01:49:28.027Z,100.00
2022-09-26T01:52:08.982Z,100.00
2022-09-26T01:54:48.927Z,100.00
2022-09-26T01:57:28.961Z,100.00
2022-09-26T02:00:04.496Z,100.00
2022-09-26T02:02:47.932Z,100.00
2022-09-26T02:05:47.748Z,100.00
2022-09-26T02:08:26.878Z,100.00
2022-09-26T02:11:07.171Z,100.00
2022-09-26T02:13:52.225Z,100.00
2022-09-26T02:16:40.058Z,100.00
2022-09-26T02:19:29.518Z,100.00
2022-09-26T02:22:01.783Z,100.00
2022-09-26T02:24:29.575Z,100.00
2022-09-26T02:26:57.469Z,100.00
2022-09-26T02:29:24.916Z,100.00
2022-09-26T02:32:06.224Z,100.00
2022-09-26T02:34:33.929Z,100.00
2022-09-26T02:37:02.371Z,100.00
2022-09-26T02:39:34.499Z,100.00
2022-09-26T02:42:31.680Z,100.00
2022-09-26T02:45:29.802Z,100.00
2022-09-26T02:48:25.732Z,100.00
2022-09-26T02:50:53.100Z,100.00
2022-09-26T02:53:32.936Z,100.00
2022-09-26T02:56:14.545Z,100.00
2022-09-26T02:58:54.996Z,100.00
2022-09-26T03:01:53.113Z,100.00
2022-09-26T03:04:42.075Z,100.00
2022-09-26T03:07:15.401Z,100.00
2022-09-26T03:09:44.366Z,100.00
2022-09-26T03:12:14.087Z,100.00
2022-09-26T03:14:43.632Z,100.00
2022-09-26T03:17:11.601Z,100.00
2022-09-26T03:19:47.034Z,100.00
2022-09-26T03:22:16.603Z,100.00
2022-09-26T03:24:46.041Z,100.00
2022-09-26T03:27:16.754Z,100.00
2022-09-26T03:29:46.311Z,100.00
2022-09-26T03:32:19.837Z,100.00
2022-09-26T03:34:47.557Z,100.00
2022-09-26T03:37:16.363Z,100.00
2022-09-26T03:39:45.297Z,100.00
2022-09-26T03:42:24.881Z,100.00
2022-09-26T03:44:54.852Z,100.00
2022-09-26T03:47:57.655Z,100.00
2022-09-26T03:50:25.972Z,100.00
2022-09-26T03:52:53.584Z,100.00
2022-09-26T03:55:21.299Z,100.00
2022-09-26T03:57:48.787Z,100.00
2022-09-26T04:00:25.860Z,100.00
2022-09-26T04:02:53.965Z,100.00
2022-09-26T04:05:33.989Z,100.00
2022-09-26T04:08:05.989Z,100.00
2022-09-26T04:10:43.926Z,100.00
2022-09-26T04:13:16.829Z,100.00
2022-09-26T04:16:01.405Z,100.00
2022-09-26T04:18:30.554Z,100.00
2022-09-26T04:21:10.091Z,100.00
2022-09-26T04:23:41.049Z,100.00
2022-09-26T04:26:20.139Z,100.00
2022-09-26T04:28:52.492Z,100.00
2022-09-26T04:31:21.869Z,100.00
2022-09-26T04:33:57.507Z,100.00
2022-09-26T04:36:25.080Z,100.00
2022-09-26T04:38:52.667Z,100.00
2022-09-26T04:41:22.301Z,100.00
2022-09-26T04:43:50.561Z,100.00
2022-09-26T04:46:24.571Z,100.00
2022-09-26T04:48:57.696Z,100.00
2022-09-26T04:51:27.339Z,100.00
2022-09-26T04:53:55.574Z,100.00
2022-09-26T04:56:27.752Z,100.00
2022-09-26T04:58:57.179Z,100.00
2022-09-26T05:01:27.734Z,100.00
2022-09-26T05:04:04.406Z,100.00
2022-09-26T05:06:34.301Z,100.00
2022-09-26T05:09:04.628Z,100.00
2022-09-26T05:11:58.117Z,100.00
2022-09-26T05:14:25.792Z,100.00
2022-09-26T05:16:53.413Z,100.00
2022-09-26T05:19:21.808Z,100.00
2022-09-26T05:22:08.460Z,100.00
2022-09-26T05:24:54.411Z,100.00
2022-09-26T05:27:22.164Z,100.00
2022-09-26T05:29:49.665Z,100.00
2022-09-26T05:32:20.956Z,100.00
2022-09-26T05:34:51.292Z,100.00
2022-09-26T05:37:21.493Z,100.00
2022-09-26T05:40:09.263Z,100.00
2022-09-26T05:42:42.256Z,100.00
2022-09-26T05:45:10.433Z,100.00
2022-09-26T05:47:38.071Z,100.00
2022-09-26T05:50:10.467Z,100.00
2022-09-26T05:52:39.843Z,100.00
2022-09-26T05:55:12.235Z,100.00
2022-09-26T05:58:01.863Z,100.00
2022-09-26T06:00:51.801Z,100.00
2022-09-26T06:03:20.257Z,100.00
2022-09-26T06:06:13.331Z,100.00
2022-09-26T06:08:42.782Z,100.00
2022-09-26T06:11:31.258Z,100.00
2022-09-26T06:14:03.090Z,100.00
2022-09-26T06:16:33.128Z,100.00
2022-09-26T06:19:02.835Z,100.00
2022-09-26T06:21:30.499Z,100.00
2022-09-26T06:24:04.851Z,100.00
2022-09-26T06:26:32.655Z,100.00
2022-09-26T06:29:02.777Z,100.00
2022-09-26T06:31:34.869Z,100.00
2022-09-26T06:34:13.233Z,100.00
2022-09-26T06:37:13.209Z,100.00
2022-09-26T06:39:40.784Z,100.00
2022-09-26T06:42:09.292Z,100.00
2022-09-26T06:44:50.401Z,100.00
2022-09-26T06:47:23.715Z,100.00
2022-09-26T06:50:01.855Z,100.00
2022-09-26T06:52:36.758Z,100.00
2022-09-26T06:55:07.070Z,100.00
2022-09-26T06:57:41.541Z,100.00
2022-09-26T07:00:11.623Z,100.00
2022-09-26T07:03:16.250Z,100.00
2022-09-26T07:05:50.087Z,100.00
2022-09-26T07:08:17.798Z,100.00
2022-09-26T07:10:45.331Z,100.00
2022-09-26T07:13:19.658Z,100.00
2022-09-26T07:15:47.858Z,100.00
2022-09-26T07:18:41.300Z,100.00
2022-09-26T07:21:38.433Z,100.00
2022-09-26T07:24:14.379Z,100.00
2022-09-26T07:26:42.871Z,100.00
2022-09-26T07:29:10.865Z,100.00
2022-09-26T07:31:38.899Z,100.00
2022-09-26T07:34:08.048Z,100.00
2022-09-26T07:36:39.167Z,100.00
2022-09-26T07:39:09.481Z,100.00
2022-09-26T07:41:38.407Z,100.00
2022-09-26T07:47:12.867Z,100.00
2022-09-26T07:50:00.083Z,100.00
2022-09-26T07:52:49.111Z,100.00
2022-09-26T07:55:28.278Z,100.00
2022-09-26T07:57:59.551Z,100.00
2022-09-26T08:00:47.158Z,100.00
2022-09-26T08:03:27.677Z,100.00
2022-09-26T08:06:00.350Z,100.00
2022-09-26T08:08:30.748Z,100.00
2022-09-26T08:11:04.287Z,95.77
2022-09-26T08:14:10.345Z,96.93
2022-09-26T08:17:14.116Z,97.64
2022-09-26T08:19:42.547Z,98.34
2022-09-26T08:22:10.581Z,100.00
2022-09-26T08:24:45.431Z,100.00
2022-09-26T08:27:33.310Z,100.00
2022-09-26T08:30:01.186Z,100.00
2022-09-26T08:32:30.757Z,100.00
2022-09-26T08:34:58.445Z,100.00
2022-09-26T08:37:34.692Z,100.00
2022-09-26T08:41:10.518Z,100.00
2022-09-26T08:43:54.307Z,100.00
2022-09-26T08:46:48.154Z,100.00
2022-09-26T08:49:39.191Z,100.00
2022-09-26T08:52:21.369Z,96.56
2022-09-26T08:54:51.615Z,97.92
2022-09-26T08:57:24.679Z,100.00
2022-09-26T08:59:54.727Z,98.98
2022-09-26T09:02:42.188Z,100.00
2022-09-26T09:05:31.708Z,100.00
2022-09-26T09:08:03.699Z,100.00
2022-09-26T09:10:52.840Z,100.00
2022-09-26T09:13:35.455Z,100.00
2022-09-26T09:16:51.834Z,100.00
2022-09-26T09:19:53.408Z,100.00
2022-09-26T09:23:06.746Z,98.68
2022-09-26T09:25:55.312Z,99.56
2022-09-26T09:28:37.718Z,100.00
2022-09-26T09:31:16.963Z,100.00
2022-09-26T09:34:04.346Z,99.75
2022-09-26T09:36:56.307Z,100.00
2022-09-26T09:39:51.734Z,100.00
2022-09-26T09:42:29.504Z,100.00
2022-09-26T09:45:06.672Z,100.00
2022-09-26T09:47:39.583Z,96.41
2022-09-26T09:50:26.335Z,98.10
2022-09-26T09:53:11.582Z,98.01
2022-09-26T09:55:58.396Z,91.26
2022-09-26T09:58:39.485Z,99.64
2022-09-26T10:01:17.690Z,100.00
2022-09-26T10:04:07.259Z,100.00
2022-09-26T10:06:45.916Z,100.00
2022-09-26T10:09:38.916Z,99.91
2022-09-26T10:12:41.135Z,97.20
2022-09-26T10:15:58.069Z,96.14
2022-09-26T10:19:07.026Z,97.63
2022-09-26T10:21:42.785Z,97.04
2022-09-26T10:24:45.617Z,97.83
2022-09-26T10:27:24.252Z,93.88
2022-09-26T10:29:59.855Z,92.94
2022-09-26T10:32:29.560Z,90.29
2022-09-26T10:35:25.999Z,96.53
2022-09-26T10:38:06.294Z,96.93
2022-09-26T10:40:46.104Z,98.79
2022-09-26T10:43:33.664Z,100.00
2022-09-26T10:46:23.304Z,100.00
2022-09-26T10:49:14.151Z,100.00
2022-09-26T10:52:30.289Z,100.00
2022-09-26T10:55:00.542Z,100.00
2022-09-26T10:57:40.213Z,100.00
2022-09-26T11:00:08.797Z,100.00
2022-09-26T11:02:38.407Z,100.00
2022-09-26T11:05:25.334Z,99.92
2022-09-26T11:08:16.438Z,97.57
2022-09-26T11:11:16.605Z,100.00
2022-09-26T11:13:56.427Z,100.00
2022-09-26T11:16:24.648Z,100.00
2022-09-26T11:19:10.432Z,100.00
2022-09-26T11:22:08.238Z,100.00
2022-09-26T11:25:06.486Z,100.00
2022-09-26T11:28:08.197Z,100.00
2022-09-26T11:31:06.749Z,100.00
2022-09-26T11:33:45.998Z,100.00
2022-09-26T11:37:03.801Z,100.00
2022-09-26T11:39:41.035Z,100.00
2022-09-26T11:42:29.739Z,100.00
2022-09-26T11:45:00.775Z,100.00
2022-09-26T11:48:25.705Z,100.00
2022-09-26T11:51:33.470Z,100.00
2022-09-26T11:54:20.630Z,100.00
2022-09-26T11:57:22.306Z,100.00
2022-09-26T12:00:03.079Z,100.00
2022-09-26T12:03:01.319Z,100.00
2022-09-26T12:05:50.676Z,100.00
2022-09-26T12:08:52.002Z,100.00
2022-09-26T12:11:38.273Z,100.00
2022-09-26T12:14:29.828Z,100.00
2022-09-26T12:17:11.947Z,100.00
2022-09-26T12:20:01.443Z,100.00
2022-09-26T12:22:36.393Z,98.07
2022-09-26T12:25:07.663Z,96.94
2022-09-26T12:27:49.979Z,95.18
2022-09-26T12:30:26.580Z,97.59
2022-09-26T12:33:32.008Z,100.00
2022-09-26T12:36:24.312Z,97.73
2022-09-26T12:39:13.178Z,98.69
2022-09-26T12:42:13.271Z,100.00
2022-09-26T12:45:17.443Z,100.00
2022-09-26T12:47:52.638Z,100.00
2022-09-26T12:50:25.190Z,100.00
2022-09-26T12:52:55.527Z,100.00
2022-09-26T12:55:38.630Z,100.00
2022-09-26T12:58:22.173Z,100.00
2022-09-26T13:01:02.572Z,100.00
2022-09-26T13:03:45.829Z,100.00
2022-09-26T13:06:38.654Z,100.00
2022-09-26T13:09:23.912Z,98.95
2022-09-26T13:12:00.588Z,97.31
2022-09-26T13:14:43.140Z,97.61
2022-09-26T13:17:15.801Z,96.24
2022-09-26T13:20:01.784Z,100.00
2022-09-26T13:22:38.219Z,100.00
2022-09-26T13:25:13.007Z,100.00
2022-09-26T13:28:29.888Z,100.00
2022-09-26T13:31:03.378Z,100.00
2022-09-26T13:33:40.135Z,100.00
2022-09-26T13:36:10.264Z,100.00
2022-09-26T13:38:59.807Z,100.00
2022-09-26T13:41:55.297Z,100.00
2022-09-26T13:44:47.889Z,100.00
2022-09-26T13:47:37.196Z,100.00
2022-09-26T13:50:14.683Z,100.00
2022-09-26T13:52:52.723Z,100.00
2022-09-26T13:55:22.409Z,100.00
2022-09-26T13:58:04.385Z,100.00
2022-09-26T14:00:31.837Z,100.00
2022-09-26T14:03:19.684Z,100.00
2022-09-26T14:05:52.354Z,100.00
2022-09-26T14:08:44.481Z,100.00
2022-09-26T14:11:19.983Z,100.00
2022-09-26T14:13:48.988Z,100.00
2022-09-26T14:16:29.131Z,100.00
2022-09-26T14:19:24.809Z,100.00
2022-09-26T14:22:05.661Z,100.00
2022-09-26T14:24:37.531Z,100.00
2022-09-26T14:27:13.877Z,100.00
2022-09-26T14:29:47.328Z,100.00
2022-09-26T14:32:23.585Z,100.00
2022-09-26T14:34:57.378Z,100.00
2022-09-26T14:37:24.777Z,100.00
2022-09-26T14:40:12.642Z,100.00
2022-09-26T14:42:43.036Z,100.00
2022-09-26T14:45:19.432Z,100.00
2022-09-26T14:47:49.769Z,100.00
2022-09-26T14:50:49.815Z,100.00
2022-09-26T14:53:34.355Z,100.00
2022-09-26T14:56:06.687Z,100.00
2022-09-26T14:58:48.737Z,100.00
2022-09-26T15:01:31.165Z,100.00
2022-09-26T15:04:03.377Z,100.00
2022-09-26T15:06:36.451Z,100.00
2022-09-26T15:09:13.255Z,100.00
2022-09-26T15:11:54.850Z,100.00
2022-09-26T15:14:49.033Z,100.00
2022-09-26T15:17:27.999Z,100.00
2022-09-26T15:19:59.211Z,100.00
2022-09-26T15:22:31.245Z,100.00
2022-09-26T15:25:23.465Z,100.00
2022-09-26T15:27:55.242Z,100.00
2022-09-26T15:30:38.035Z,100.00
2022-09-26T15:33:06.316Z,100.00
2022-09-26T15:35:34.440Z,100.00
2022-09-26T15:38:04.527Z,100.00
2022-09-26T15:40:32.524Z,100.00
2022-09-26T15:43:22.995Z,99.93
2022-09-26T15:46:03.581Z,100.00
2022-09-26T15:48:35.035Z,100.00
2022-09-26T15:51:12.948Z,100.00
2022-09-26T15:53:45.758Z,100.00
2022-09-26T15:56:25.361Z,100.00
2022-09-26T15:59:03.620Z,100.00
2022-09-26T16:01:32.275Z,100.00
2022-09-26T16:04:16.244Z,100.00
2022-09-26T16:07:03.549Z,100.00
2022-09-26T16:09:41.044Z,100.00
2022-09-26T16:12:17.631Z,100.00
2022-09-26T16:14:51.147Z,100.00
2022-09-26T16:17:27.971Z,100.00
2022-09-26T16:20:02.733Z,100.00
2022-09-26T16:22:45.841Z,100.00
2022-09-26T16:25:19.490Z,100.00
2022-09-26T16:27:49.709Z,100.00
2022-09-26T16:30:42.024Z,100.00
2022-09-26T16:33:09.475Z,100.00
2022-09-26T16:35:43.775Z,100.00
2022-09-26T16:38:34.623Z,100.00
2022-09-26T16:42:01.351Z,100.00
2022-09-26T16:44:28.863Z,100.00
2022-09-26T16:47:02.129Z,100.00
2022-09-26T16:49:31.392Z,100.00
2022-09-26T16:52:34.795Z,100.00
2022-09-26T16:55:06.362Z,100.00
2022-09-26T16:57:49.380Z,100.00
2022-09-26T17:00:39.068Z,100.00
2022-09-26T17:03:31.073Z,100.00
2022-09-26T17:06:00.252Z,100.00
2022-09-26T17:08:29.066Z,100.00
2022-09-26T17:11:01.516Z,100.00
2022-09-26T17:13:33.372Z,100.00
2022-09-26T17:16:03.689Z,100.00
2022-09-26T17:18:33.545Z,100.00
2022-09-26T17:21:01.805Z,100.00
2022-09-26T17:23:40.920Z,100.00
2022-09-26T17:26:20.073Z,100.00
2022-09-26T17:28:48.282Z,100.00
2022-09-26T17:31:21.600Z,100.00
2022-09-26T17:33:52.758Z,100.00
2022-09-26T17:36:26.450Z,100.00
2022-09-26T17:38:55.000Z,100.00
2022-09-26T17:41:23.510Z,100.00
2022-09-26T17:43:58.845Z,100.00
2022-09-26T17:46:26.606Z,100.00
2022-09-26T17:48:54.934Z,100.00
2022-09-26T17:51:24.246Z,100.00
2022-09-26T17:53:52.891Z,100.00
2022-09-26T17:56:21.115Z,100.00
2022-09-26T17:58:51.589Z,100.00
2022-09-26T18:01:24.836Z,100.00
2022-09-26T18:03:58.803Z,100.00
2022-09-26T18:06:31.761Z,100.00
2022-09-26T18:09:05.595Z,100.00
2022-09-26T18:11:34.745Z,100.00
2022-09-26T18:14:04.894Z,100.00
2022-09-26T18:16:32.392Z,100.00
2022-09-26T18:19:06.793Z,100.00
2022-09-26T18:21:35.701Z,100.00
2022-09-26T18:24:07.154Z,100.00
2022-09-26T18:26:42.335Z,100.00
2022-09-26T18:29:13.781Z,100.00
2022-09-26T18:31:44.794Z,100.00
2022-09-26T18:34:16.452Z,100.00
2022-09-26T18:36:44.133Z,100.00
2022-09-26T18:39:11.724Z,100.00
2022-09-26T18:41:40.082Z,100.00
2022-09-26T18:44:14.775Z,100.00
2022-09-26T18:46:44.878Z,100.00
2022-09-26T18:49:13.915Z,100.00
2022-09-26T18:51:42.479Z,100.00
2022-09-26T18:54:13.825Z,100.00
2022-09-26T18:57:00.215Z,100.00
2022-09-26T18:59:31.280Z,100.00
2022-09-26T19:02:01.625Z,100.00
2022-09-26T19:04:30.908Z,100.00
2022-09-26T19:07:01.336Z,100.00
2022-09-26T19:09:33.536Z,100.00
2022-09-26T19:12:02.320Z,100.00
2022-09-26T19:14:31.673Z,100.00
2022-09-26T19:16:59.625Z,100.00
2022-09-26T19:19:28.891Z,100.00
2022-09-26T19:22:02.330Z,100.00
2022-09-26T19:24:44.054Z,100.00
2022-09-26T19:27:33.723Z,100.00
2022-09-26T19:30:15.845Z,100.00
2022-09-26T19:32:47.081Z,100.00
2022-09-26T19:35:30.527Z,100.00
2022-09-26T19:38:01.282Z,100.00
2022-09-26T19:40:29.215Z,100.00
2022-09-26T19:42:57.496Z,100.00
2022-09-26T19:45:26.594Z,100.00
2022-09-26T19:47:56.118Z,100.00
2022-09-26T19:50:26.008Z,100.00
2022-09-26T19:52:55.720Z,100.00
2022-09-26T19:55:31.698Z,100.00
2022-09-26T19:58:14.000Z,100.00
2022-09-26T20:00:44.857Z,98.04
2022-09-26T20:03:21.479Z,96.81
2022-09-26T20:05:50.290Z,95.31
2022-09-26T20:08:22.161Z,93.97
2022-09-26T20:10:50.519Z,90.99
2022-09-26T20:13:18.970Z,89.43
2022-09-26T20:15:47.231Z,90.32
2022-09-26T20:18:21.578Z,94.32
2022-09-26T20:20:54.219Z,92.54
2022-09-26T20:23:25.342Z,90.48
2022-09-26T20:25:54.666Z,92.40
2022-09-26T20:28:23.057Z,91.79
2022-09-26T20:30:55.653Z,90.90
2022-09-26T20:33:24.511Z,91.40
2022-09-26T20:36:02.913Z,92.03
2022-09-26T20:38:37.483Z,89.16
2022-09-26T20:41:15.436Z,90.89
2022-09-26T20:43:48.057Z,90.07
2022-09-26T20:46:15.983Z,90.13
2022-09-26T20:48:47.445Z,94.01
2022-09-26T20:51:20.885Z,94.76
2022-09-26T20:53:48.323Z,92.54
2022-09-26T20:56:21.498Z,92.51
2022-09-26T20:58:48.985Z,90.42
2022-09-26T21:01:19.587Z,91.79
2022-09-26T21:03:52.595Z,93.42
2022-09-26T21:06:22.735Z,94.27
2022-09-26T21:08:50.250Z,91.70
2022-09-26T21:11:19.827Z,91.61
2022-09-26T21:13:48.195Z,92.96
2022-09-26T21:16:18.439Z,94.44
2022-09-26T21:18:49.920Z,93.78
2022-09-26T21:21:24.473Z,94.25
2022-09-26T21:24:01.498Z,94.33
2022-09-26T21:26:31.527Z,94.74
2022-09-26T21:28:58.989Z,92.23
2022-09-26T21:31:32.343Z,92.36
2022-09-26T21:34:01.159Z,92.37
2022-09-26T21:36:35.810Z,99.37
2022-09-26T21:39:03.873Z,100.00
2022-09-26T21:41:31.435Z,100.00
2022-09-26T21:44:06.668Z,100.00
2022-09-26T21:46:34.393Z,100.00
2022-09-26T21:49:01.993Z,100.00
2022-09-26T21:51:30.360Z,100.00
2022-09-26T21:54:07.478Z,100.00
2022-09-26T21:56:48.994Z,99.63
2022-09-26T21:59:20.001Z,94.09
2022-09-26T22:01:47.704Z,92.53
2022-09-26T22:04:15.265Z,92.76
2022-09-26T22:06:43.025Z,94.08
2022-09-26T22:09:10.572Z,95.83
2022-09-26T22:11:38.431Z,98.85
2022-09-26T22:14:06.371Z,95.65
2022-09-26T22:16:34.016Z,94.89
2022-09-26T22:19:01.972Z,95.40
2022-09-26T22:21:29.588Z,96.17
2022-09-26T22:23:57.240Z,96.16
2022-09-26T22:26:24.801Z,94.50
2022-09-26T22:28:52.338Z,96.74
2022-09-26T22:31:20.142Z,100.00
2022-09-26T22:33:47.746Z,100.00
2022-09-26T22:36:16.819Z,100.00
2022-09-26T22:38:45.144Z,100.00
2022-09-26T22:41:12.582Z,100.00
2022-09-26T22:43:40.092Z,100.00
2022-09-26T22:46:09.991Z,100.00
2022-09-26T22:48:42.695Z,100.00
2022-09-26T22:51:10.591Z,100.00
2022-09-26T22:53:39.504Z,100.00
2022-09-26T22:56:09.528Z,100.00
2022-09-26T22:58:43.315Z,100.00
2022-09-26T23:01:23.278Z,100.00
2022-09-26T23:03:55.026Z,98.34
2022-09-26T23:06:23.843Z,96.75
2022-09-26T23:08:51.838Z,98.36
2022-09-26T23:11:20.390Z,100.00
2022-09-26T23:13:50.223Z,97.83
2022-09-26T23:16:47.867Z,100.00
2022-09-26T23:19:18.206Z,100.00
2022-09-26T23:21:45.654Z,99.47
2022-09-26T23:24:13.251Z,98.76
2022-09-26T23:26:40.783Z,98.44
2022-09-26T23:29:09.533Z,100.00
2022-09-26T23:31:37.043Z,100.00
2022-09-26T23:34:04.853Z,100.00
2022-09-26T23:36:32.430Z,100.00
2022-09-26T23:39:00.221Z,100.00
2022-09-26T23:41:27.739Z,100.00
2022-09-26T23:43:55.243Z,100.00
2022-09-26T23:46:22.914Z,100.00
2022-09-26T23:48:50.455Z,100.00
2022-09-26T23:51:18.064Z,100.00
2022-09-26T23:53:45.585Z,100.00
2022-09-26T23:56:14.458Z,100.00
2022-09-26T23:58:42.379Z,97.86
